createdAt,value
2018-10-03T00:01:46.730Z,12.20
2018-10-03T00:04:14.165Z,12.30
2018-10-03T00:06:41.633Z,12.10
2018-10-03T00:09:09.794Z,12.10
2018-10-03T00:11:37.251Z,12.00
2018-10-03T00:14:05.236Z,11.90
2018-10-03T00:16:32.715Z,11.90
2018-10-03T00:19:00.173Z,12.00
2018-10-03T00:21:27.662Z,11.90
2018-10-03T00:23:55.171Z,11.90
2018-10-03T00:26:22.637Z,11.90
2018-10-03T00:28:50.146Z,11.90
2018-10-03T00:31:17.577Z,11.90
2018-10-03T00:33:45.039Z,12.00
2018-10-03T00:36:12.456Z,12.00
2018-10-03T00:38:39.972Z,12.00
2018-10-03T00:41:07.593Z,12.10
2018-10-03T00:43:35.066Z,12.20
2018-10-03T00:46:02.539Z,12.20
2018-10-03T00:48:29.985Z,12.30
2018-10-03T00:50:57.409Z,12.30
2018-10-03T00:53:24.871Z,12.20
2018-10-03T00:55:52.370Z,12.30
2018-10-03T00:58:19.866Z,12.40
2018-10-03T01:00:47.369Z,12.50
2018-10-03T01:03:14.973Z,12.50
2018-10-03T01:05:42.436Z,12.60
2018-10-03T01:08:09.961Z,12.50
2018-10-03T01:10:37.450Z,12.50
2018-10-03T01:13:05.098Z,12.50
2018-10-03T01:15:32.573Z,12.60
2018-10-03T01:18:00.043Z,12.70
2018-10-03T01:20:27.500Z,12.80
2018-10-03T01:22:54.925Z,12.90
2018-10-03T01:25:22.361Z,13.10
2018-10-03T01:27:49.826Z,13.20
2018-10-03T01:30:17.259Z,13.10
2018-10-03T01:32:44.774Z,13.10
2018-10-03T01:35:12.203Z,13.10
2018-10-03T01:37:40.475Z,13.20
2018-10-03T01:40:07.918Z,13.10
2018-10-03T01:42:35.405Z,13.00
2018-10-03T01:45:02.901Z,13.00
2018-10-03T01:47:30.327Z,13.00
2018-10-03T01:49:57.888Z,13.00
2018-10-03T01:52:25.449Z,13.00
2018-10-03T01:54:52.934Z,12.90
2018-10-03T01:57:20.603Z,12.80
2018-10-03T01:59:48.135Z,12.80
2018-10-03T02:02:15.618Z,12.70
2018-10-03T02:04:43.159Z,12.80
2018-10-03T02:07:10.639Z,12.70
2018-10-03T02:09:38.126Z,12.80
2018-10-03T02:12:05.923Z,12.80
2018-10-03T02:14:33.409Z,12.80
2018-10-03T02:17:01.000Z,12.70
2018-10-03T02:19:28.510Z,12.60
2018-10-03T02:21:55.994Z,12.60
2018-10-03T02:24:23.546Z,12.60
2018-10-03T02:26:51.082Z,12.60
2018-10-03T02:29:18.630Z,12.60
2018-10-03T02:31:46.207Z,12.70
2018-10-03T02:34:13.657Z,12.80
2018-10-03T02:36:41.226Z,12.80
2018-10-03T02:39:09.303Z,12.80
2018-10-03T02:41:36.837Z,12.90
2018-10-03T02:44:04.559Z,12.80
2018-10-03T02:46:32.006Z,12.70
2018-10-03T02:48:59.613Z,12.70
2018-10-03T02:51:27.099Z,12.60
2018-10-03T02:53:54.687Z,12.60
2018-10-03T02:56:22.145Z,12.70
2018-10-03T02:58:49.597Z,12.70
2018-10-03T03:01:17.068Z,12.70
2018-10-03T03:03:44.510Z,12.50
2018-10-03T03:06:12.010Z,12.50
2018-10-03T03:08:39.659Z,12.50
2018-10-03T03:11:07.274Z,12.40
2018-10-03T03:13:34.958Z,12.40
2018-10-03T03:16:02.337Z,12.40
2018-10-03T03:18:30.101Z,12.30
2018-10-03T03:20:57.638Z,12.20
2018-10-03T03:23:25.065Z,12.20
2018-10-03T03:25:52.486Z,12.20
2018-10-03T03:28:19.899Z,12.10
2018-10-03T03:30:47.506Z,12.10
2018-10-03T03:33:14.979Z,12.10
2018-10-03T03:35:42.433Z,12.00
2018-10-03T03:38:09.934Z,12.00
2018-10-03T03:40:37.518Z,12.00
2018-10-03T03:43:04.998Z,12.00
2018-10-03T03:45:32.514Z,11.90
2018-10-03T03:48:00.131Z,11.90
2018-10-03T03:50:27.935Z,11.90
2018-10-03T03:52:55.539Z,11.80
2018-10-03T03:55:23.051Z,11.80
2018-10-03T03:57:50.651Z,11.80
2018-10-03T04:00:18.188Z,11.90
2018-10-03T04:02:45.675Z,11.90
2018-10-03T04:05:13.155Z,11.90
2018-10-03T04:07:40.791Z,12.00
2018-10-03T04:10:08.301Z,12.00
2018-10-03T04:12:35.851Z,12.00
2018-10-03T04:15:03.343Z,12.00
2018-10-03T04:17:30.864Z,12.00
2018-10-03T04:19:58.325Z,12.10
2018-10-03T04:22:25.825Z,12.00
2018-10-03T04:24:53.321Z,12.10
2018-10-03T04:27:20.807Z,12.10
2018-10-03T04:29:48.370Z,12.10
2018-10-03T04:32:15.835Z,12.10
2018-10-03T04:34:43.346Z,12.20
2018-10-03T04:37:10.867Z,12.30
2018-10-03T04:39:38.337Z,12.30
2018-10-03T04:42:06.093Z,12.30
2018-10-03T04:44:33.663Z,12.30
2018-10-03T04:47:01.154Z,12.40
2018-10-03T04:49:28.674Z,12.40
2018-10-03T04:51:56.157Z,12.40
2018-10-03T04:54:23.713Z,12.40
2018-10-03T04:56:51.160Z,12.30
2018-10-03T04:59:18.698Z,12.20
2018-10-03T05:01:46.250Z,12.30
2018-10-03T05:04:13.946Z,12.30
2018-10-03T05:06:41.382Z,12.40
2018-10-03T05:09:08.914Z,12.30
2018-10-03T05:11:36.526Z,12.40
2018-10-03T05:14:04.045Z,12.30
2018-10-03T05:16:31.466Z,12.30
2018-10-03T05:18:59.061Z,12.30
2018-10-03T05:21:26.512Z,12.30
2018-10-03T05:23:54.013Z,12.30
2018-10-03T05:26:21.502Z,12.30
2018-10-03T05:28:48.918Z,12.40
2018-10-03T05:31:16.375Z,12.40
2018-10-03T05:33:43.852Z,12.50
2018-10-03T05:36:11.385Z,12.70
2018-10-03T05:38:38.935Z,12.70
2018-10-03T05:41:06.437Z,12.80
2018-10-03T05:43:33.886Z,12.70
2018-10-03T05:46:01.446Z,12.60
2018-10-03T05:48:29.071Z,12.70
2018-10-03T05:50:56.561Z,12.80
2018-10-03T05:53:24.051Z,12.80
2018-10-03T05:55:51.531Z,12.80
2018-10-03T05:58:18.987Z,12.80
2018-10-03T06:00:46.517Z,12.80
2018-10-03T06:03:14.005Z,12.90
2018-10-03T06:05:41.454Z,12.90
2018-10-03T06:08:08.933Z,13.10
2018-10-03T06:10:36.446Z,13.20
2018-10-03T06:13:03.947Z,13.20
2018-10-03T06:15:31.367Z,13.40
2018-10-03T06:17:59.113Z,13.40
2018-10-03T06:20:26.569Z,13.40
2018-10-03T06:22:54.048Z,13.30
2018-10-03T06:25:21.651Z,13.50
2018-10-03T06:27:49.256Z,13.60
2018-10-03T06:30:16.823Z,13.70
2018-10-03T06:32:44.403Z,13.60
2018-10-03T06:35:11.878Z,13.60
2018-10-03T06:37:39.302Z,13.50
2018-10-03T06:40:06.954Z,13.70
2018-10-03T06:42:34.417Z,13.70
2018-10-03T06:45:01.878Z,13.70
2018-10-03T06:47:29.346Z,13.90
2018-10-03T06:49:56.893Z,14.00
2018-10-03T06:52:24.418Z,14.20
2018-10-03T06:54:51.951Z,14.20
2018-10-03T06:57:19.456Z,14.00
2018-10-03T06:59:46.994Z,13.90
2018-10-03T07:02:14.524Z,13.80
2018-10-03T07:04:41.943Z,13.80
2018-10-03T07:07:09.466Z,13.90
2018-10-03T07:09:37.082Z,14.10
2018-10-03T07:12:04.609Z,14.20
2018-10-03T07:14:32.198Z,14.30
2018-10-03T07:16:59.593Z,14.10
2018-10-03T07:19:27.062Z,13.90
2018-10-03T07:21:54.669Z,13.80
2018-10-03T07:24:22.089Z,14.00
2018-10-03T07:26:49.669Z,14.10
2018-10-03T07:29:17.104Z,14.10
2018-10-03T07:31:44.547Z,14.10
2018-10-03T07:34:12.036Z,14.20
2018-10-03T07:36:39.498Z,14.20
2018-10-03T07:39:08.213Z,14.20
2018-10-03T07:41:35.726Z,14.20
2018-10-03T07:44:03.350Z,14.10
2018-10-03T07:46:30.905Z,14.20
2018-10-03T07:48:58.353Z,14.20
2018-10-03T07:51:25.890Z,14.20
2018-10-03T07:53:53.405Z,14.20
2018-10-03T07:56:20.932Z,14.20
2018-10-03T07:58:48.473Z,14.20
2018-10-03T08:01:15.986Z,14.10
2018-10-03T08:03:43.482Z,14.20
2018-10-03T08:06:10.996Z,14.30
2018-10-03T08:08:38.466Z,14.40
2018-10-03T08:11:06.107Z,14.50
2018-10-03T08:13:33.610Z,14.70
2018-10-03T08:16:01.174Z,14.80
2018-10-03T08:18:28.654Z,15.00
2018-10-03T08:20:56.090Z,15.20
2018-10-03T08:23:23.663Z,15.30
2018-10-03T08:25:51.117Z,15.30
2018-10-03T08:28:18.549Z,15.10
2018-10-03T08:30:46.032Z,15.10
2018-10-03T08:33:13.571Z,15.20
2018-10-03T08:35:41.035Z,15.10
2018-10-03T08:38:08.580Z,15.10
2018-10-03T08:40:36.187Z,15.10
2018-10-03T08:43:03.621Z,15.10
2018-10-03T08:45:31.151Z,15.30
2018-10-03T08:47:58.586Z,15.50
2018-10-03T08:50:26.030Z,15.60
2018-10-03T08:52:53.659Z,15.70
2018-10-03T08:55:21.147Z,15.80
2018-10-03T08:57:48.762Z,16.00
2018-10-03T09:00:16.230Z,16.10
2018-10-03T09:02:43.767Z,16.20
2018-10-03T09:05:11.758Z,16.10
2018-10-03T09:07:39.246Z,16.10
2018-10-03T09:10:06.743Z,16.30
2018-10-03T09:12:34.275Z,16.40
2018-10-03T09:15:01.761Z,16.50
2018-10-03T09:17:29.302Z,16.70
2018-10-03T09:19:56.762Z,16.80
2018-10-03T09:22:24.243Z,16.90
2018-10-03T09:24:51.806Z,17.10
2018-10-03T09:27:19.245Z,17.30
2018-10-03T09:29:46.869Z,17.50
2018-10-03T09:32:14.445Z,17.70
2018-10-03T09:34:41.971Z,17.80
2018-10-03T09:37:09.484Z,18.00
2018-10-03T09:39:37.239Z,18.10
2018-10-03T09:42:04.701Z,18.20
2018-10-03T09:44:32.232Z,18.30
2018-10-03T09:46:59.712Z,18.50
2018-10-03T09:49:27.134Z,18.80
2018-10-03T09:51:54.666Z,18.80
2018-10-03T09:54:22.131Z,18.90
2018-10-03T09:56:49.605Z,19.00
2018-10-03T09:59:17.181Z,19.10
2018-10-03T10:01:44.689Z,19.20
2018-10-03T10:04:12.223Z,19.20
2018-10-03T10:06:39.707Z,19.30
2018-10-03T10:09:08.441Z,19.40
2018-10-03T10:11:37.477Z,19.50
2018-10-03T10:14:04.975Z,19.40
2018-10-03T10:16:32.590Z,19.40
2018-10-03T10:19:00.113Z,19.10
2018-10-03T10:21:27.570Z,19.20
2018-10-03T10:23:55.036Z,19.40
2018-10-03T10:26:22.469Z,19.50
2018-10-03T10:28:49.948Z,19.40
2018-10-03T10:31:17.398Z,19.70
2018-10-03T10:33:44.881Z,19.90
2018-10-03T10:36:12.357Z,19.90
2018-10-03T10:38:39.869Z,19.80
2018-10-03T10:41:07.416Z,19.90
2018-10-03T10:43:35.072Z,20.10
2018-10-03T10:46:02.571Z,20.20
2018-10-03T10:48:30.067Z,20.00
2018-10-03T10:50:57.596Z,19.80
2018-10-03T10:53:25.222Z,19.60
2018-10-03T10:55:52.851Z,19.70
2018-10-03T10:58:20.458Z,20.10
2018-10-03T11:00:47.958Z,20.60
2018-10-03T11:03:16.448Z,21.20
2018-10-03T11:05:44.295Z,21.30
2018-10-03T11:08:11.981Z,22.10
2018-10-03T11:10:39.460Z,22.90
2018-10-03T11:13:07.022Z,23.10
2018-10-03T11:15:34.575Z,22.60
2018-10-03T11:18:01.985Z,23.40
2018-10-03T11:20:29.469Z,23.30
2018-10-03T11:22:56.957Z,23.90
2018-10-03T11:25:24.485Z,23.50
2018-10-03T11:27:51.919Z,22.70
2018-10-03T11:30:19.450Z,22.70
2018-10-03T11:32:47.020Z,22.90
2018-10-03T11:35:14.497Z,22.80
2018-10-03T11:37:42.074Z,22.50
2018-10-03T11:40:09.593Z,22.40
2018-10-03T11:42:37.207Z,22.10
2018-10-03T11:45:04.959Z,21.80
2018-10-03T11:47:32.402Z,21.60
2018-10-03T11:49:59.842Z,22.30
2018-10-03T11:52:27.322Z,22.20
2018-10-03T11:54:54.800Z,21.60
2018-10-03T11:57:22.362Z,21.20
2018-10-03T11:59:49.838Z,21.00
2018-10-03T12:02:17.308Z,21.10
2018-10-03T12:04:44.850Z,21.20
2018-10-03T12:07:12.354Z,21.40
2018-10-03T12:09:39.830Z,21.50
2018-10-03T12:12:07.311Z,21.50
2018-10-03T12:14:34.770Z,21.30
2018-10-03T12:17:02.255Z,20.80
2018-10-03T12:19:29.739Z,20.50
2018-10-03T12:21:58.290Z,20.30
2018-10-03T12:24:25.779Z,20.20
2018-10-03T12:26:53.255Z,20.20
2018-10-03T12:29:21.331Z,20.20
2018-10-03T12:31:49.412Z,19.70
2018-10-03T12:34:16.893Z,19.60
2018-10-03T12:36:44.373Z,19.70
2018-10-03T12:39:12.922Z,19.90
2018-10-03T12:41:40.459Z,20.00
2018-10-03T12:44:07.963Z,19.70
2018-10-03T12:46:35.920Z,19.60
2018-10-03T12:49:03.403Z,19.50
2018-10-03T12:51:30.863Z,19.30
2018-10-03T12:53:58.357Z,19.20
2018-10-03T12:56:25.907Z,19.10
2018-10-03T12:58:53.395Z,18.90
2018-10-03T13:01:20.925Z,18.90
2018-10-03T13:03:48.341Z,18.90
2018-10-03T13:06:15.873Z,18.90
2018-10-03T13:08:43.359Z,18.90
2018-10-03T13:11:10.806Z,18.90
2018-10-03T13:13:38.292Z,18.80
2018-10-03T13:16:05.811Z,18.80
2018-10-03T13:18:33.246Z,18.80
2018-10-03T13:21:00.740Z,18.80
2018-10-03T13:23:28.360Z,18.80
2018-10-03T13:25:55.932Z,18.80
2018-10-03T13:28:23.435Z,18.40
2018-10-03T13:30:50.933Z,18.00
2018-10-03T13:33:18.404Z,18.00
2018-10-03T13:35:45.975Z,18.10
2018-10-03T13:38:13.445Z,18.20
2018-10-03T13:40:40.918Z,18.20
2018-10-03T13:43:08.442Z,18.20
2018-10-03T13:45:36.017Z,18.00
2018-10-03T13:48:03.549Z,18.10
2018-10-03T13:50:31.057Z,18.20
2018-10-03T13:52:58.611Z,18.40
2018-10-03T13:55:26.102Z,18.60
2018-10-03T13:57:53.554Z,18.60
2018-10-03T14:00:21.008Z,18.60
2018-10-03T14:02:48.508Z,18.70
2018-10-03T14:05:15.978Z,18.80
2018-10-03T14:07:43.493Z,18.90
2018-10-03T14:10:10.974Z,19.30
2018-10-03T14:12:38.434Z,19.80
2018-10-03T14:15:06.020Z,20.00
2018-10-03T14:17:33.514Z,20.20
2018-10-03T14:20:00.993Z,19.80
2018-10-03T14:22:28.429Z,19.80
2018-10-03T14:24:55.940Z,19.60
2018-10-03T14:27:23.943Z,19.30
2018-10-03T14:29:51.397Z,19.50
2018-10-03T14:32:18.916Z,19.60
2018-10-03T14:34:46.529Z,19.80
2018-10-03T14:37:14.192Z,19.80
2018-10-03T14:39:41.722Z,19.60
2018-10-03T14:42:09.180Z,19.60
2018-10-03T14:44:36.674Z,19.70
2018-10-03T14:47:04.221Z,19.60
2018-10-03T14:49:31.706Z,19.60
2018-10-03T14:51:59.252Z,19.60
2018-10-03T14:54:26.695Z,19.60
2018-10-03T14:56:54.138Z,19.60
2018-10-03T14:59:21.584Z,19.60
2018-10-03T15:01:49.165Z,19.50
2018-10-03T15:04:16.618Z,19.40
2018-10-03T15:06:44.071Z,19.10
2018-10-03T15:09:11.535Z,18.90
2018-10-03T15:11:39.007Z,18.60
2018-10-03T15:14:06.620Z,18.30
2018-10-03T15:16:34.117Z,18.20
2018-10-03T15:19:02.817Z,18.00
2018-10-03T15:21:30.273Z,17.80
2018-10-03T15:23:57.792Z,17.70
2018-10-03T15:26:25.278Z,17.80
2018-10-03T15:28:52.767Z,17.80
2018-10-03T15:31:20.243Z,18.00
2018-10-03T15:33:47.771Z,17.80
2018-10-03T15:36:15.258Z,17.70
2018-10-03T15:38:42.723Z,17.70
2018-10-03T15:41:10.221Z,17.70
2018-10-03T15:43:37.721Z,17.70
2018-10-03T15:46:05.173Z,17.80
2018-10-03T15:48:32.641Z,17.90
2018-10-03T15:51:00.133Z,17.90
2018-10-03T15:53:27.586Z,17.90
2018-10-03T15:55:55.167Z,17.90
2018-10-03T15:58:22.642Z,18.00
2018-10-03T16:00:50.152Z,18.10
2018-10-03T16:03:17.682Z,18.20
2018-10-03T16:05:45.147Z,18.20
2018-10-03T16:08:12.657Z,18.00
2018-10-03T16:10:40.095Z,17.90
2018-10-03T16:13:07.703Z,17.90
2018-10-03T16:15:35.160Z,17.90
2018-10-03T16:18:02.711Z,17.90
2018-10-03T16:20:30.199Z,17.90
2018-10-03T16:22:57.660Z,17.90
2018-10-03T16:25:25.134Z,17.80
2018-10-03T16:27:52.652Z,17.70
2018-10-03T16:30:20.113Z,17.70
2018-10-03T16:32:47.546Z,17.50
2018-10-03T16:35:15.054Z,17.50
2018-10-03T16:37:42.567Z,17.40
2018-10-03T16:40:09.995Z,17.40
2018-10-03T16:42:37.443Z,17.40
2018-10-03T16:45:05.163Z,17.40
2018-10-03T16:47:32.650Z,17.40
2018-10-03T16:50:00.123Z,17.30
2018-10-03T16:52:27.614Z,17.40
2018-10-03T16:54:55.095Z,17.30
2018-10-03T16:57:22.562Z,17.30
2018-10-03T16:59:50.053Z,17.30
2018-10-03T17:02:17.531Z,17.30
2018-10-03T17:04:45.004Z,17.30
2018-10-03T17:07:12.496Z,17.20
2018-10-03T17:09:40.042Z,17.20
2018-10-03T17:12:07.563Z,17.20
2018-10-03T17:14:39.480Z,17.10
2018-10-03T17:17:07.606Z,17.10
2018-10-03T17:19:35.288Z,17.10
2018-10-03T17:22:03.154Z,17.10
2018-10-03T17:24:31.971Z,17.00
2018-10-03T17:26:59.640Z,17.00
2018-10-03T17:29:27.176Z,17.00
2018-10-03T17:31:54.767Z,17.00
2018-10-03T17:34:22.282Z,16.90
2018-10-03T17:36:51.051Z,17.00
2018-10-03T17:39:18.986Z,16.90
2018-10-03T17:41:46.560Z,16.90
2018-10-03T17:44:15.036Z,16.80
2018-10-03T17:46:42.560Z,16.80
2018-10-03T17:49:10.175Z,16.80
2018-10-03T17:51:37.638Z,16.80
2018-10-03T17:54:05.171Z,16.80
2018-10-03T17:56:32.689Z,16.80
2018-10-03T17:59:00.196Z,16.80
2018-10-03T18:01:29.035Z,16.80
2018-10-03T18:03:56.659Z,16.80
2018-10-03T18:06:24.210Z,16.80
2018-10-03T18:08:51.670Z,16.80
2018-10-03T18:11:19.634Z,16.70
2018-10-03T18:13:47.134Z,16.70
2018-10-03T18:16:15.053Z,16.80
2018-10-03T18:18:42.562Z,16.80
2018-10-03T18:21:10.101Z,16.70
2018-10-03T18:23:37.571Z,16.70
2018-10-03T18:26:05.103Z,16.70
2018-10-03T18:28:32.717Z,16.70
2018-10-03T18:31:00.267Z,16.70
2018-10-03T18:33:27.999Z,16.70
2018-10-03T18:35:55.769Z,16.60
2018-10-03T18:38:23.612Z,16.60
2018-10-03T18:40:51.375Z,16.60
2018-10-03T18:43:19.233Z,16.60
2018-10-03T18:45:47.001Z,16.60
2018-10-03T18:48:14.807Z,16.60
2018-10-03T18:50:42.601Z,16.60
2018-10-03T18:53:10.505Z,16.60
2018-10-03T18:55:38.410Z,16.60
2018-10-03T18:58:06.195Z,16.60
2018-10-03T19:00:34.012Z,16.60
2018-10-03T19:03:01.866Z,16.50
2018-10-03T19:05:29.714Z,16.50
2018-10-03T19:07:57.539Z,16.50
2018-10-03T19:10:25.377Z,16.50
2018-10-03T19:12:53.246Z,16.50
2018-10-03T19:15:21.034Z,16.50
2018-10-03T19:17:48.865Z,16.50
2018-10-03T19:20:16.770Z,16.50
2018-10-03T19:22:44.516Z,16.50
2018-10-03T19:25:12.399Z,16.50
2018-10-03T19:27:40.599Z,16.40
2018-10-03T19:30:08.429Z,16.40
2018-10-03T19:32:36.300Z,16.40
2018-10-03T19:35:04.210Z,16.40
2018-10-03T19:37:32.023Z,16.40
2018-10-03T19:39:59.825Z,16.30
2018-10-03T19:42:27.648Z,16.30
2018-10-03T19:44:55.436Z,16.30
2018-10-03T19:47:23.190Z,16.30
2018-10-03T19:49:50.854Z,16.30
2018-10-03T19:52:18.370Z,16.30
2018-10-03T19:54:45.902Z,16.30
2018-10-03T19:57:13.430Z,16.30
2018-10-03T19:59:40.948Z,16.20
2018-10-03T20:02:08.786Z,16.30
2018-10-03T20:04:36.323Z,16.30
2018-10-03T20:07:03.946Z,16.20
2018-10-03T20:09:31.397Z,16.30
2018-10-03T20:11:58.992Z,16.20
2018-10-03T20:14:26.490Z,16.20
2018-10-03T20:16:53.976Z,16.20
2018-10-03T20:19:21.508Z,16.20
2018-10-03T20:21:48.964Z,16.20
2018-10-03T20:24:16.426Z,16.20
2018-10-03T20:26:43.968Z,16.10
2018-10-03T20:29:11.428Z,16.10
2018-10-03T20:31:38.830Z,16.10
2018-10-03T20:34:06.578Z,16.10
2018-10-03T20:36:34.016Z,16.00
2018-10-03T20:39:02.499Z,16.00
2018-10-03T20:41:29.976Z,16.00
2018-10-03T20:43:57.522Z,16.00
2018-10-03T20:46:25.042Z,16.00
2018-10-03T20:48:52.559Z,16.00
2018-10-03T20:51:20.089Z,16.00
2018-10-03T20:53:47.576Z,16.00
2018-10-03T20:56:15.071Z,16.00
2018-10-03T20:58:42.582Z,15.90
2018-10-03T21:01:10.118Z,15.90
2018-10-03T21:03:37.603Z,15.90
2018-10-03T21:06:05.081Z,15.90
2018-10-03T21:08:32.556Z,15.90
2018-10-03T21:11:00.043Z,15.90
2018-10-03T21:13:27.493Z,15.80
2018-10-03T21:15:54.964Z,15.80
2018-10-03T21:18:22.435Z,15.80
2018-10-03T21:20:49.913Z,15.70
2018-10-03T21:23:17.394Z,15.70
2018-10-03T21:25:44.911Z,15.60
2018-10-03T21:28:12.381Z,15.60
2018-10-03T21:30:39.905Z,15.50
2018-10-03T21:33:07.399Z,15.60
2018-10-03T21:35:34.898Z,15.60
2018-10-03T21:38:02.385Z,15.70
2018-10-03T21:40:29.861Z,15.70
2018-10-03T21:42:57.342Z,15.70
2018-10-03T21:45:24.843Z,15.80
2018-10-03T21:47:52.363Z,15.80
2018-10-03T21:50:19.812Z,15.90
2018-10-03T21:52:47.283Z,15.90
2018-10-03T21:55:14.774Z,15.80
2018-10-03T21:57:42.258Z,15.80
2018-10-03T22:00:09.782Z,15.70
2018-10-03T22:02:37.612Z,15.70
2018-10-03T22:05:07.350Z,15.70
2018-10-03T22:07:34.823Z,15.70
2018-10-03T22:10:02.306Z,15.70
2018-10-03T22:12:29.757Z,15.70
2018-10-03T22:14:57.257Z,15.60
2018-10-03T22:17:25.118Z,15.60
2018-10-03T22:19:53.958Z,15.60
2018-10-03T22:22:21.379Z,15.60
2018-10-03T22:24:49.105Z,15.60
2018-10-03T22:27:16.739Z,15.50
2018-10-03T22:29:44.510Z,15.50
2018-10-03T22:32:11.937Z,15.50
2018-10-03T22:34:39.597Z,15.50
2018-10-03T22:37:07.478Z,15.40
2018-10-03T22:39:34.983Z,15.30
2018-10-03T22:42:02.486Z,15.20
2018-10-03T22:44:30.158Z,15.20
2018-10-03T22:46:57.688Z,15.20
2018-10-03T22:49:25.138Z,15.20
2018-10-03T22:51:52.619Z,15.20
2018-10-03T22:54:20.050Z,15.20
2018-10-03T22:56:47.508Z,15.30
2018-10-03T22:59:14.977Z,15.30
2018-10-03T23:01:42.439Z,15.30
2018-10-03T23:04:09.898Z,15.30
2018-10-03T23:06:37.366Z,15.30
2018-10-03T23:09:05.977Z,15.30
2018-10-03T23:11:33.463Z,15.30
2018-10-03T23:14:01.027Z,15.20
2018-10-03T23:16:28.579Z,15.30
2018-10-03T23:18:56.014Z,15.30
2018-10-03T23:21:23.441Z,15.20
2018-10-03T23:23:50.869Z,15.10
2018-10-03T23:26:18.290Z,15.00
2018-10-03T23:28:45.761Z,15.00
2018-10-03T23:31:13.209Z,15.00
2018-10-03T23:33:40.657Z,15.00
2018-10-03T23:36:08.127Z,15.10
2018-10-03T23:38:35.594Z,15.10
2018-10-03T23:41:03.229Z,15.00
2018-10-03T23:43:30.966Z,15.00
2018-10-03T23:45:58.469Z,14.90
2018-10-03T23:48:26.007Z,14.90
2018-10-03T23:50:53.442Z,14.90
2018-10-03T23:53:21.098Z,14.80
2018-10-03T23:55:48.591Z,14.80
2018-10-03T23:58:16.130Z,14.90
